Airfield :
LOGIN :

Register | Disclaimer

   EN    FR    IT 

 










Legend :    VFR   Marginal VFR   IFR   Intensive IFR   Very Intensive IFR
Visi :
Ceiling :
>= 8 km
>= 3000ft
5 to 8 km
1000 to 3000 ft
1500m to 5 km
500 to 1000 ft
800 to 1500m
200 to 500 ft
< 800m
< 200 ft
Symbols :   Thunderstorms  Fog  Heavy snow  Heavy precipitations  Wind > 20 kt
SIGMETs :     Misc.  Thunderstorms  Icing  Turbulence  Mountain Waves  Volcanic Ashes






- Airport Elevation : 1568 ft


ETSB - Büchel AB

CURRENT METAR :
  • 171720Z 27005KT 2500 -DZ BR BKN001 OVC003 03/03 Q1033 REDZ RED FCST CANCEL

EXPIRED METARs :
  • 171705Z 28006KT 2000 DZ BR BKN001 OVC003 03/03 Q1033 RED RED
  • 171620Z 27005KT 3500 -DZ BR FEW001 BKN002 03/02 Q1033 AMB AMB
  • 171604Z 27005KT 3500 -DZ BR FEW001 BKN002 BKN006 03/02 Q1033 AMB AMB
  • 171542Z 27006KT 3500 -DZ BR SCT002 BKN004 03/02 Q1033 YLO YLO BECMG AMB
  • 171520Z 27006KT 2000 -DZ BR FEW002 BKN005 03/02 Q1033 YLO YLO BECMG AMB

TAF AMD TAF ETSB
Valid from the 17 at 16:00 until the 18 at 00:00 UTC


171606Z 1716/1724 28007KT 3000 BR FEW001 BKN002
BECMG 1718/1719 32008KT 0800 FG BKN001 BY ETGL



MET'MAP, your aeronautical weather chart ! - Copyright ORBIFLY December 2007 - Disclaimer

ORBIFLY MET'MAP TEAM :

Programming & Development : Alexandra Zaïnal
Concept & original design : Baudouin d'Aumeries
Assistance for programming : Marc-Olivier Méhu
Technical & hardware support : Manuel Goepfert

Contact : metmap@orbifly.com




SOURCES & CREDITS :

   NOAA